Time;durP1;ratioP1;P1;durP2;ratioP2;P2;SDS_P1;SDS_P2;PMS_P1;PMS_P2;Temp;Humidity;BMP_temperature;BMP_pressure;BME280_temperature;BME280_humidity;BME280_pressure;Samples;Min_cycle;Max_cycle;Signal;HPM_P1;HPM_P2
2020/12/13 00:04:32;;;;;;;11.10;6.63;;;16.40;66.30;;;;;;10495902;28;20116;-61
2020/12/13 00:09:33;;;;;;;8.40;6.50;;;16.40;66.20;;;;;;10495801;28;20054;-61
2020/12/13 00:14:35;;;;;;;9.98;6.43;;;16.40;66.20;;;;;;10492129;28;20500;-60
2020/12/13 00:19:35;;;;;;;8.90;6.78;;;16.30;66.10;;;;;;10477481;28;20048;-61
2020/12/13 00:24:36;;;;;;;11.10;7.32;;;16.30;66.10;;;;;;10494280;28;20403;-60
2020/12/13 00:29:37;;;;;;;9.32;6.30;;;16.40;66.20;;;;;;10502571;28;20468;-60
2020/12/13 00:34:37;;;;;;;10.40;6.57;;;16.30;66.30;;;;;;10503666;28;20107;-61
2020/12/13 00:39:38;;;;;;;9.02;6.30;;;16.30;66.20;;;;;;10503471;28;20025;-60
2020/12/13 00:44:39;;;;;;;9.15;6.90;;;16.30;66.20;;;;;;10503364;28;20028;-60
2020/12/13 00:49:39;;;;;;;9.57;7.15;;;16.30;66.10;;;;;;10503094;28;20032;-61
2020/12/13 00:54:40;;;;;;;10.68;7.13;;;16.20;66.10;;;;;;10484572;28;20143;-61
2020/12/13 00:59:41;;;;;;;10.70;6.88;;;16.20;66.40;;;;;;10502425;28;20040;-61
2020/12/13 01:04:42;;;;;;;8.73;6.43;;;16.20;66.30;;;;;;10501107;28;20041;-60
2020/12/13 01:09:45;;;;;;;9.73;7.10;;;16.20;66.30;;;;;;10500774;28;20115;-61
2020/12/13 01:14:45;;;;;;;8.68;6.18;;;16.30;66.40;;;;;;10499327;28;20082;-61
2020/12/13 01:19:47;;;;;;;8.70;7.38;;;16.20;66.70;;;;;;10501713;28;20162;-61
2020/12/13 01:24:47;;;;;;;11.90;7.40;;;16.20;66.30;;;;;;10500254;28;20044;-61
2020/12/13 01:29:48;;;;;;;9.48;6.60;;;16.20;66.20;;;;;;10517061;28;20052;-61
2020/12/13 01:34:49;;;;;;;10.13;7.45;;;16.20;66.10;;;;;;10499908;28;20158;-61
2020/12/13 01:39:50;;;;;;;10.13;7.55;;;16.10;66.30;;;;;;10474674;28;20028;-61
2020/12/13 01:44:50;;;;;;;11.10;7.28;;;16.10;66.20;;;;;;10482878;28;20353;-61
2020/12/13 01:49:51;;;;;;;9.07;6.57;;;16.10;66.20;;;;;;10493606;28;20024;-61
2020/12/13 01:55:04;;;;;;;10.70;6.90;;;16.10;66.20;;;;;;10498217;28;20107;-60
2020/12/13 02:00:11;;;;;;;9.07;7.13;;;16.10;66.20;;;;;;10496901;28;20513;-60
2020/12/13 02:05:14;;;;;;;10.57;7.13;;;16.10;66.20;;;;;;10498613;28;20045;-60
2020/12/13 02:10:16;;;;;;;9.85;6.43;;;16.10;66.10;;;;;;10486581;28;20083;-61
2020/12/13 02:15:18;;;;;;;7.43;6.03;;;16.10;66.50;;;;;;10487865;28;20357;-61
2020/12/13 02:20:19;;;;;;;9.07;6.78;;;16.00;66.30;;;;;;10498087;28;20063;-61
2020/12/13 02:25:22;;;;;;;8.07;6.38;;;16.00;66.20;;;;;;10497776;28;20029;-61
2020/12/13 02:30:22;;;;;;;8.77;6.45;;;16.00;66.20;;;;;;10498156;28;20040;-61
2020/12/13 02:35:23;;;;;;;9.07;7.35;;;16.00;66.30;;;;;;10498841;28;20043;-61
2020/12/13 02:40:24;;;;;;;9.82;6.88;;;16.00;66.40;;;;;;10497414;28;20031;-61
2020/12/13 02:45:25;;;;;;;8.48;6.30;;;16.00;66.30;;;;;;10494133;28;20094;-61
2020/12/13 02:50:26;;;;;;;8.90;6.15;;;16.00;66.30;;;;;;10494163;28;20565;-61
2020/12/13 02:55:26;;;;;;;8.25;6.50;;;16.00;66.30;;;;;;10480102;28;20086;-61
2020/12/13 03:00:27;;;;;;;8.75;6.47;;;16.00;66.40;;;;;;10496449;28;20032;-61
2020/12/13 03:05:28;;;;;;;8.82;6.38;;;15.90;66.40;;;;;;10496683;28;20185;-60
2020/12/13 03:10:29;;;;;;;10.57;7.50;;;15.90;66.30;;;;;;10485957;28;20106;-61
2020/12/13 03:15:29;;;;;;;9.73;6.97;;;15.90;66.20;;;;;;10496841;28;20397;-60
2020/12/13 03:20:30;;;;;;;9.57;7.18;;;15.90;66.40;;;;;;10496991;28;20066;-61
2020/12/13 03:25:31;;;;;;;11.65;8.07;;;15.90;66.30;;;;;;10488877;28;20132;-61
2020/12/13 03:30:31;;;;;;;8.45;6.35;;;15.80;66.10;;;;;;10492555;28;20016;-61
2020/12/13 03:35:32;;;;;;;10.95;7.88;;;15.90;66.30;;;;;;10492536;28;20036;-61
2020/12/13 03:40:33;;;;;;;9.38;6.80;;;15.80;66.40;;;;;;10496992;28;20064;-61
2020/12/13 03:45:33;;;;;;;8.80;7.10;;;15.80;66.30;;;;;;10494257;28;20431;-61
2020/12/13 03:50:40;;;;;;;9.70;6.82;;;15.80;66.30;;;;;;10496442;28;20525;-61
2020/12/13 03:55:42;;;;;;;8.13;6.28;;;15.80;66.40;;;;;;10496880;28;20421;-61
2020/12/13 04:00:42;;;;;;;9.13;6.55;;;15.80;66.30;;;;;;10511679;28;20060;-60
2020/12/13 04:05:43;;;;;;;8.38;6.00;;;15.80;66.30;;;;;;10494719;28;20044;-60
2020/12/13 04:10:44;;;;;;;9.25;7.07;;;15.80;66.40;;;;;;10496370;28;20029;-60
2020/12/13 04:15:44;;;;;;;9.73;7.25;;;15.80;66.40;;;;;;10492299;28;20032;-60
2020/12/13 04:20:45;;;;;;;9.55;6.40;;;15.80;66.20;;;;;;10496069;28;20115;-61
2020/12/13 04:25:46;;;;;;;9.18;6.75;;;15.70;66.20;;;;;;10496083;28;20103;-61
2020/12/13 04:30:47;;;;;;;11.25;6.80;;;15.70;66.10;;;;;;10495819;28;20100;-61
2020/12/13 04:35:48;;;;;;;10.45;7.15;;;15.70;66.40;;;;;;10495825;28;20025;-60
2020/12/13 04:40:48;;;;;;;8.80;6.25;;;15.70;66.30;;;;;;10494734;28;20414;-61
2020/12/13 04:45:49;;;;;;;7.82;6.20;;;15.70;66.20;;;;;;10495198;28;20073;-61
2020/12/13 04:50:51;;;;;;;9.63;7.05;;;15.70;66.50;;;;;;10495491;28;20056;-61
2020/12/13 04:55:56;;;;;;;10.75;7.65;;;15.70;66.40;;;;;;10484394;28;20025;-60
2020/12/13 05:01:01;;;;;;;10.68;7.82;;;15.70;66.30;;;;;;10495583;28;20060;-60
2020/12/13 05:06:02;;;;;;;10.45;7.10;;;15.70;66.30;;;;;;10494983;28;20078;-60
2020/12/13 05:11:03;;;;;;;9.18;7.25;;;15.70;66.30;;;;;;10494485;28;20554;-60
2020/12/13 05:16:11;;;;;;;9.75;6.65;;;15.60;66.30;;;;;;10499257;28;20064;-61
2020/12/13 05:21:17;;;;;;;7.97;6.45;;;15.60;66.30;;;;;;10484425;28;20496;-60
2020/12/13 05:26:21;;;;;;;10.00;6.57;;;15.60;66.40;;;;;;10499186;28;20025;-60
2020/12/13 05:31:28;;;;;;;8.65;6.25;;;15.60;66.30;;;;;;10495367;28;20111;-60
2020/12/13 05:36:31;;;;;;;8.75;6.28;;;15.60;66.30;;;;;;10482531;28;20051;-60
2020/12/13 05:41:37;;;;;;;7.93;6.07;;;15.60;66.30;;;;;;10498043;28;20070;-60
2020/12/13 05:51:41;;;;;;;9.43;6.60;;;15.50;66.40;;;;;;10498563;28;20017;-61
2020/12/13 05:56:42;;;;;;;9.02;6.35;;;15.60;66.40;;;;;;10497993;28;20431;-60
2020/12/13 06:01:46;;;;;;;8.68;6.40;;;15.50;66.40;;;;;;10498491;28;20225;-61
2020/12/13 06:06:49;;;;;;;10.95;6.40;;;15.50;66.40;;;;;;10475625;28;20045;-60
2020/12/13 06:11:50;;;;;;;8.75;6.15;;;15.50;66.40;;;;;;10491670;28;20108;-61
2020/12/13 06:16:51;;;;;;;8.80;6.70;;;15.50;66.50;;;;;;10497298;28;20041;-61
2020/12/13 06:21:55;;;;;;;8.63;6.55;;;15.50;66.40;;;;;;10492890;28;20017;-60
2020/12/13 06:26:57;;;;;;;13.10;7.32;;;15.50;66.40;;;;;;10447345;28;20070;-61
2020/12/13 06:32:00;;;;;;;19.02;6.30;;;18.40;62.50;;;;;;10491989;28;20017;-61
2020/12/13 06:37:04;;;;;;;9.35;6.10;;;21.10;54.80;;;;;;10493964;28;20039;-63
2020/12/13 06:42:05;;;;;;;11.35;6.07;;;21.80;52.60;;;;;;10497090;28;20041;-62
2020/12/13 06:47:23;;;;;;;10.43;5.97;;;22.40;51.20;;;;;;10497855;28;20400;-63
2020/12/13 06:52:34;;;;;;;11.98;6.05;;;23.10;49.60;;;;;;10496765;28;20020;-59
2020/12/13 06:57:36;;;;;;;11.20;6.43;;;23.80;48.60;;;;;;10497673;28;20032;-63
2020/12/13 07:02:45;;;;;;;15.13;5.03;;;23.90;47.90;;;;;;10497536;28;20112;-63
2020/12/13 07:07:52;;;;;;;17.67;6.03;;;24.40;47.70;;;;;;10497130;28;20468;-63
2020/12/13 07:12:56;;;;;;;18.73;5.90;;;24.40;46.30;;;;;;10496874;28;20024;-64
2020/12/13 07:17:57;;;;;;;10.82;4.55;;;24.50;45.40;;;;;;10495587;28;20098;-64
2020/12/13 07:22:58;;;;;;;12.05;4.95;;;23.60;44.10;;;;;;10496688;28;20054;-67
2020/12/13 07:28:00;;;;;;;7.60;4.55;;;24.80;44.50;;;;;;10496999;28;20050;-65
2020/12/13 07:33:01;;;;;;;10.27;5.35;;;24.80;44.50;;;;;;10489788;28;20107;-65
2020/12/13 07:38:02;;;;;;;9.73;6.32;;;24.90;43.80;;;;;;10493003;28;20126;-65
2020/12/13 07:43:05;;;;;;;6.97;5.03;;;25.20;43.70;;;;;;10493864;28;20034;-66
2020/12/13 07:48:05;;;;;;;15.05;5.75;;;25.30;42.40;;;;;;10478299;28;20040;-66
2020/12/13 07:53:06;;;;;;;8.88;4.90;;;25.40;42.60;;;;;;10493542;28;20066;-64
2020/12/13 07:58:07;;;;;;;11.75;4.93;;;25.70;42.90;;;;;;10490887;28;20111;-62
2020/12/13 08:03:07;;;;;;;11.75;5.15;;;25.60;43.50;;;;;;10489089;28;20176;-64
2020/12/13 08:08:08;;;;;;;13.10;4.88;;;25.90;44.00;;;;;;10468647;28;20048;-63
2020/12/13 08:13:09;;;;;;;11.35;5.15;;;26.10;44.40;;;;;;10495668;28;20023;-64
2020/12/13 08:18:16;;;;;;;9.88;3.83;;;26.40;44.60;;;;;;10495788;28;20426;-64
2020/12/13 08:23:18;;;;;;;10.52;4.80;;;26.30;44.30;;;;;;10495582;28;20035;-68
2020/12/13 08:28:19;;;;;;;12.38;4.53;;;26.70;43.90;;;;;;10494145;28;20029;-65
2020/12/13 08:33:24;;;;;;;8.95;4.15;;;26.80;43.40;;;;;;10458129;28;20035;-63
2020/12/13 08:38:24;;;;;;;7.18;4.60;;;26.80;43.10;;;;;;10476908;28;20047;-63
2020/12/13 08:43:33;;;;;;;9.52;4.85;;;26.70;43.70;;;;;;10490871;28;20032;-60
2020/12/13 08:48:34;;;;;;;7.00;4.35;;;26.20;44.20;;;;;;10492777;28;20017;-62
2020/12/13 08:53:35;;;;;;;10.27;5.57;;;25.70;45.20;;;;;;10490509;28;20484;-65
2020/12/13 08:58:48;;;;;;;11.68;4.55;;;25.60;45.60;;;;;;10488979;28;20021;-62
2020/12/13 09:03:49;;;;;;;9.60;3.40;;;25.40;46.40;;;;;;10502743;28;20035;-63
2020/12/13 09:08:50;;;;;;;11.10;3.80;;;25.70;45.70;;;;;;10491509;28;20501;-65
2020/12/13 09:13:50;;;;;;;7.65;3.13;;;25.30;46.70;;;;;;10498237;28;20047;-62
2020/12/13 09:19:02;;;;;;;7.38;3.90;;;25.60;46.20;;;;;;10486987;28;20029;-62
2020/12/13 09:24:03;;;;;;;9.80;2.95;;;25.50;46.00;;;;;;10486530;28;20032;-63
2020/12/13 09:29:04;;;;;;;7.45;3.58;;;25.70;46.10;;;;;;10491860;28;20108;-64
2020/12/13 09:34:05;;;;;;;11.68;3.72;;;25.60;46.70;;;;;;10491469;28;20033;-60
2020/12/13 09:39:06;;;;;;;19.15;4.05;;;25.50;46.70;;;;;;10488298;28;20075;-63
2020/12/13 09:44:06;;;;;;;9.88;2.70;;;25.60;46.00;;;;;;10491355;28;20028;-63
2020/12/13 09:49:07;;;;;;;10.43;3.15;;;24.70;46.50;;;;;;10482798;28;20581;-63
2020/12/13 09:54:08;;;;;;;11.48;4.55;;;21.60;53.20;;;;;;10494380;28;20446;-63
2020/12/13 09:59:08;;;;;;;6.70;2.63;;;20.00;57.40;;;;;;10500095;28;20111;-65
2020/12/13 10:04:09;;;;;;;8.68;3.25;;;19.30;59.50;;;;;;10497805;28;20132;-65
2020/12/13 10:09:12;;;;;;;6.85;3.20;;;18.90;60.70;;;;;;10495860;28;20104;-65
2020/12/13 10:14:14;;;;;;;7.35;3.75;;;18.70;61.40;;;;;;10493192;28;20115;-65
2020/12/13 10:19:15;;;;;;;4.65;2.80;;;18.50;61.90;;;;;;10498972;28;20024;-64
2020/12/13 10:24:15;;;;;;;7.50;3.50;;;18.40;62.20;;;;;;10497495;28;20449;-65
2020/12/13 10:29:16;;;;;;;8.38;2.85;;;18.40;62.20;;;;;;10495790;28;20029;-65
2020/12/13 10:34:17;;;;;;;5.53;3.05;;;18.40;62.50;;;;;;10499022;28;20025;-66
2020/12/13 10:39:22;;;;;;;6.35;2.83;;;18.30;62.50;;;;;;10497439;28;20479;-65
2020/12/13 10:44:22;;;;;;;8.45;3.28;;;18.30;62.60;;;;;;10498394;28;20415;-65
2020/12/13 10:49:23;;;;;;;8.50;2.92;;;18.30;62.60;;;;;;10497277;28;20044;-66
2020/12/13 10:54:24;;;;;;;6.32;2.80;;;18.30;62.70;;;;;;10488206;28;20031;-64
2020/12/13 10:59:24;;;;;;;7.72;3.00;;;18.30;63.20;;;;;;10489335;28;20062;-65
2020/12/13 11:04:25;;;;;;;6.32;2.78;;;18.30;62.70;;;;;;10490084;28;20095;-65
2020/12/13 11:09:26;;;;;;;6.05;2.90;;;18.30;62.70;;;;;;10496380;28;20028;-65
2020/12/13 11:14:27;;;;;;;5.13;2.80;;;18.20;62.70;;;;;;10497184;28;20044;-65
2020/12/13 11:19:27;;;;;;;8.63;2.60;;;18.20;62.90;;;;;;10496523;28;20115;-65
2020/12/13 11:24:28;;;;;;;4.13;2.90;;;18.20;63.10;;;;;;10485868;28;20078;-65
2020/12/13 11:29:28;;;;;;;3.95;2.30;;;18.10;63.20;;;;;;10479112;28;20166;-65
2020/12/13 11:34:29;;;;;;;5.20;2.33;;;18.10;63.20;;;;;;10495714;28;20142;-64
2020/12/13 11:39:31;;;;;;;2.97;2.00;;;18.00;63.40;;;;;;10486235;28;20435;-65
2020/12/13 11:44:32;;;;;;;4.43;2.80;;;18.10;63.60;;;;;;10494345;28;20476;-60
2020/12/13 11:49:32;;;;;;;6.82;2.40;;;18.10;63.40;;;;;;10469091;28;20043;-64
2020/12/13 11:54:33;;;;;;;13.40;3.45;;;18.30;63.00;;;;;;10470370;28;20131;-60
2020/12/13 11:59:34;;;;;;;5.30;3.28;;;18.70;62.50;;;;;;10478653;28;20350;-59
2020/12/13 12:04:34;;;;;;;12.68;3.60;;;18.90;61.80;;;;;;10490242;28;20051;-63
2020/12/13 12:09:35;;;;;;;11.05;3.60;;;18.80;62.20;;;;;;10490138;28;20119;-59
2020/12/13 12:14:36;;;;;;;12.30;3.13;;;18.80;62.70;;;;;;10491942;28;20100;-62
2020/12/13 12:19:39;;;;;;;13.88;3.90;;;19.00;63.30;;;;;;10495951;28;20032;-60
2020/12/13 12:24:39;;;;;;;13.63;3.83;;;19.10;63.90;;;;;;10504382;28;20025;-61
2020/12/13 12:29:41;;;;;;;8.07;2.83;;;19.00;64.30;;;;;;10503225;28;20028;-62
2020/12/13 12:34:41;;;;;;;18.38;3.50;;;18.90;65.00;;;;;;10502824;28;20105;-59
2020/12/13 12:39:42;;;;;;;16.77;3.78;;;18.90;65.70;;;;;;10503481;28;20170;-62
2020/12/13 12:44:45;;;;;;;10.75;2.88;;;18.80;66.10;;;;;;10503970;28;20129;-58
2020/12/13 12:49:46;;;;;;;12.07;3.22;;;18.70;66.70;;;;;;10504044;28;20025;-62
2020/12/13 12:54:46;;;;;;;23.13;4.40;;;18.60;66.50;;;;;;10502257;28;20040;-58
2020/12/13 13:05:12;;;;;;;23.23;3.83;;;18.70;66.40;;;;;;10476781;28;20056;-61
2020/12/13 13:10:17;;;;;;;15.63;3.03;;;18.60;66.60;;;;;;10488889;28;20286;-57
2020/12/13 13:15:26;;;;;;;21.30;4.35;;;18.50;67.70;;;;;;10482477;28;20370;-58
2020/12/13 13:20:27;;;;;;;22.40;5.00;;;18.70;67.50;;;;;;10499054;28;20465;-60
2020/12/13 13:25:27;;;;;;;19.35;4.32;;;18.70;67.20;;;;;;10486151;28;20374;-58
2020/12/13 13:30:29;;;;;;;23.63;3.88;;;18.50;67.40;;;;;;10497477;28;20047;-60
2020/12/13 13:35:32;;;;;;;20.25;4.57;;;18.40;67.60;;;;;;10490046;28;20029;-58
2020/12/13 13:40:34;;;;;;;17.27;3.75;;;18.40;67.40;;;;;;10497004;28;20030;-59
2020/12/13 13:50:54;;;;;;;26.10;5.35;;;18.30;67.60;;;;;;10501042;28;20037;-62
2020/12/13 13:56:00;;;;;;;27.45;5.90;;;18.30;67.00;;;;;;10499627;28;20373;-60
2020/12/13 14:01:00;;;;;;;24.63;5.03;;;18.30;66.50;;;;;;10491771;28;20039;-60
2020/12/13 14:06:07;;;;;;;20.42;4.75;;;18.30;66.30;;;;;;10499408;28;20402;-60
2020/12/13 14:11:11;;;;;;;20.55;4.07;;;18.40;66.30;;;;;;10500339;28;20027;-60
2020/12/13 14:16:12;;;;;;;15.27;4.50;;;18.40;66.00;;;;;;10499010;28;20028;-60
2020/12/13 14:21:17;;;;;;;18.35;4.75;;;18.40;66.00;;;;;;10500075;28;20028;-59
2020/12/13 14:26:29;;;;;;;13.70;4.43;;;18.40;65.80;;;;;;10499249;28;20362;-60
2020/12/13 14:31:30;;;;;;;17.90;3.88;;;18.30;65.60;;;;;;10497893;28;20056;-60
2020/12/13 14:36:31;;;;;;;12.88;4.43;;;18.40;65.70;;;;;;10499131;28;20036;-60
2020/12/13 14:41:32;;;;;;;16.85;4.72;;;18.30;65.40;;;;;;10481546;28;20522;-59
2020/12/13 14:46:33;;;;;;;15.20;4.22;;;18.40;65.00;;;;;;10460255;28;20057;-59
2020/12/13 14:51:35;;;;;;;19.92;4.75;;;18.50;64.70;;;;;;10478873;28;20016;-60
2020/12/13 14:56:35;;;;;;;14.20;4.20;;;18.50;64.20;;;;;;10495327;28;20029;-60
2020/12/13 15:01:36;;;;;;;17.85;4.93;;;18.40;64.40;;;;;;10495970;28;20470;-60
2020/12/13 15:06:37;;;;;;;18.88;4.20;;;18.50;64.20;;;;;;10495235;28;20119;-59
2020/12/13 15:11:38;;;;;;;11.00;3.35;;;18.60;64.10;;;;;;10497247;28;20454;-61
2020/12/13 15:22:02;;;;;;;13.38;2.95;;;18.50;64.10;;;;;;10493952;28;20529;-60
2020/12/13 15:27:02;;;;;;;13.90;3.80;;;18.50;64.30;;;;;;10501645;28;20028;-60
2020/12/13 15:32:03;;;;;;;10.85;3.60;;;18.50;64.20;;;;;;10496748;28;20040;-60
2020/12/13 15:37:04;;;;;;;8.30;2.95;;;18.50;64.40;;;;;;10497318;28;20576;-60
2020/12/13 15:42:05;;;;;;;12.50;3.83;;;18.50;64.30;;;;;;10496207;28;20107;-61
2020/12/13 15:47:05;;;;;;;13.43;3.05;;;18.70;63.90;;;;;;10496671;28;20426;-61
2020/12/13 15:52:06;;;;;;;13.65;3.33;;;18.60;63.70;;;;;;10496887;28;20108;-60
2020/12/13 15:57:07;;;;;;;18.00;3.88;;;18.70;63.50;;;;;;10491304;28;20040;-60
2020/12/13 16:02:07;;;;;;;14.80;4.28;;;18.60;63.60;;;;;;10496285;28;20032;-59
2020/12/13 16:07:16;;;;;;;14.18;3.17;;;18.80;63.40;;;;;;10482840;28;20124;-59
2020/12/13 16:12:18;;;;;;;81.22;41.60;;;18.90;63.30;;;;;;10465439;28;20044;-59
2020/12/13 16:17:18;;;;;;;40.95;15.40;;;18.80;64.60;;;;;;10461222;28;20024;-59
2020/12/13 16:22:19;;;;;;;21.23;11.13;;;18.80;65.30;;;;;;10460069;28;20112;-60
2020/12/13 16:27:20;;;;;;;18.42;8.68;;;18.80;66.80;;;;;;10463356;28;20099;-60
2020/12/13 16:32:20;;;;;;;24.63;9.27;;;18.90;62.70;;;;;;10495846;28;20119;-60
2020/12/13 16:37:22;;;;;;;18.88;6.53;;;19.10;61.20;;;;;;10495910;28;20099;-60
2020/12/13 16:42:48;;;;;;;12.32;5.95;;;19.30;59.80;;;;;;10486376;28;20074;-60
2020/12/13 16:47:53;;;;;;;22.45;6.68;;;19.40;59.20;;;;;;10463193;28;20377;-58
2020/12/13 16:58:14;;;;;;;8.00;4.13;;;19.30;59.50;;;;;;10461288;28;20409;-56
2020/12/13 17:03:15;;;;;;;11.57;5.07;;;19.30;59.40;;;;;;10473381;28;20123;-56
2020/12/13 17:08:16;;;;;;;12.38;4.95;;;19.40;58.80;;;;;;10475876;28;20072;-56
2020/12/13 17:13:16;;;;;;;9.20;4.45;;;19.50;58.80;;;;;;10468037;28;20441;-60
2020/12/13 17:18:17;;;;;;;11.30;3.80;;;19.60;57.90;;;;;;10472977;28;20100;-61
2020/12/13 17:23:18;;;;;;;8.82;3.28;;;19.50;57.40;;;;;;10471865;28;20048;-61
2020/12/13 17:28:19;;;;;;;11.80;3.22;;;19.30;57.90;;;;;;10477627;28;20037;-57
2020/12/13 17:33:20;;;;;;;11.95;3.60;;;19.10;60.70;;;;;;10500607;28;20032;-60
2020/12/13 17:38:21;;;;;;;9.73;3.60;;;19.00;62.50;;;;;;10501633;28;20107;-58
2020/12/13 17:43:23;;;;;;;6.70;3.00;;;18.90;63.20;;;;;;10501851;28;20035;-57
2020/12/13 17:48:24;;;;;;;12.57;3.90;;;18.80;64.00;;;;;;10494764;28;20040;-59
2020/12/13 17:54:10;;;;;;;12.95;3.63;;;18.90;63.20;;;;;;10496634;28;20099;-60
2020/12/13 17:59:08;;;;;;;14.40;3.10;;;18.80;63.20;;;;;;10491946;28;20477;-60
2020/12/13 18:04:09;;;;;;;11.30;3.13;;;18.70;63.30;;;;;;10500582;28;20058;-59
2020/12/13 18:09:09;;;;;;;10.90;3.58;;;18.70;63.20;;;;;;10500730;28;20697;-60
2020/12/13 18:14:11;;;;;;;8.57;2.85;;;18.70;63.20;;;;;;10500323;28;20476;-59
2020/12/13 18:19:11;;;;;;;8.70;2.78;;;18.70;63.10;;;;;;10500175;28;20706;-59
2020/12/13 18:24:12;;;;;;;9.70;3.20;;;18.60;63.00;;;;;;10500093;28;20108;-59
2020/12/13 18:29:14;;;;;;;12.18;2.60;;;18.60;63.00;;;;;;10499707;28;20078;-60
2020/12/13 18:34:15;;;;;;;4.57;2.45;;;18.70;62.90;;;;;;10499593;28;20035;-61
2020/12/13 18:39:15;;;;;;;7.43;2.28;;;18.70;62.80;;;;;;10499484;28;20033;-60
2020/12/13 18:44:17;;;;;;;8.57;2.45;;;18.70;62.80;;;;;;10497681;28;20032;-59
2020/12/13 18:49:18;;;;;;;9.68;3.53;;;18.80;62.60;;;;;;10496971;28;20376;-59
2020/12/13 18:54:19;;;;;;;9.60;2.15;;;18.80;62.90;;;;;;10478078;28;20028;-59
2020/12/13 18:59:21;;;;;;;8.70;2.10;;;18.70;62.90;;;;;;10468570;28;20024;-59
2020/12/13 19:09:24;;;;;;;6.65;2.25;;;18.70;63.10;;;;;;10458263;28;20070;-59
2020/12/13 19:14:26;;;;;;;4.00;2.33;;;18.70;63.20;;;;;;10461793;28;20108;-59
2020/12/13 19:19:26;;;;;;;13.05;4.03;;;18.60;63.20;;;;;;10466075;28;20074;-59
2020/12/13 19:24:28;;;;;;;6.38;1.92;;;18.70;63.20;;;;;;10469731;28;20112;-59
2020/12/13 19:29:29;;;;;;;10.32;3.22;;;18.70;63.20;;;;;;10468476;28;20096;-59
2020/12/13 19:34:31;;;;;;;6.32;2.13;;;18.70;63.20;;;;;;10481933;28;20056;-59
2020/12/13 19:39:32;;;;;;;6.20;2.53;;;18.80;63.10;;;;;;10460435;28;20053;-59
2020/12/13 19:44:33;;;;;;;4.95;1.98;;;18.80;63.00;;;;;;10463247;28;20036;-59
2020/12/13 19:49:34;;;;;;;6.68;2.30;;;18.80;63.30;;;;;;10485020;28;20029;-59
2020/12/13 19:54:35;;;;;;;5.30;1.90;;;18.70;63.30;;;;;;10493402;28;20389;-59
2020/12/13 19:59:36;;;;;;;3.58;1.67;;;18.70;63.30;;;;;;10462757;28;20032;-59
2020/12/13 20:04:37;;;;;;;2.63;1.35;;;18.70;63.40;;;;;;10480194;28;20480;-59
2020/12/13 20:09:38;;;;;;;4.47;1.85;;;18.70;63.30;;;;;;10485816;28;20028;-59
2020/12/13 20:20:57;;;;;;;5.05;1.77;;;18.60;63.90;;;;;;10470571;28;20041;-58
2020/12/13 20:48:17;;;;;;;4.53;2.10;;;18.20;65.80;;;;;;10498752;28;20401;-58
2020/12/13 21:08:34;;;;;;;5.55;2.22;;;17.90;66.30;;;;;;10488021;28;20722;-57
2020/12/13 21:18:02;;;;;;;3.50;2.20;;;17.80;66.50;;;;;;10500022;28;20281;-58
2020/12/13 21:23:04;;;;;;;3.65;2.17;;;17.70;66.50;;;;;;10500277;28;20043;-58
2020/12/13 21:34:19;;;;;;;3.22;1.98;;;17.50;66.70;;;;;;10502051;28;20544;-58
2020/12/13 21:38:54;;;;;;;4.38;1.70;;;17.50;66.70;;;;;;10494285;28;20523;-58
2020/12/13 21:54:17;;;;;;;4.07;1.75;;;17.30;66.70;;;;;;10500758;28;20076;-58
2020/12/13 21:59:26;;;;;;;2.65;1.73;;;17.30;66.70;;;;;;10500724;28;20111;-58
2020/12/13 22:30:53;;;;;;;4.13;1.77;;;17.20;66.40;;;;;;10499940;28;20032;-57
2020/12/13 22:35:53;;;;;;;4.38;1.67;;;17.10;66.30;;;;;;10497563;28;20270;-58
2020/12/13 22:40:54;;;;;;;1.77;1.40;;;17.10;66.30;;;;;;10498446;28;20031;-57
2020/12/13 22:45:55;;;;;;;2.97;1.65;;;17.10;66.30;;;;;;10499154;28;20401;-57
2020/12/13 22:50:55;;;;;;;3.00;1.48;;;17.10;66.20;;;;;;10498779;28;20462;-57
2020/12/13 22:55:56;;;;;;;2.53;1.23;;;17.00;66.20;;;;;;10498928;28;20039;-57
2020/12/13 23:00:57;;;;;;;2.33;1.27;;;17.00;66.10;;;;;;10498988;28;20028;-57
2020/12/13 23:05:58;;;;;;;3.08;1.73;;;17.00;66.10;;;;;;10491173;28;20048;-57
2020/12/13 23:10:59;;;;;;;3.50;1.65;;;17.00;66.20;;;;;;10498037;28;20017;-57
2020/12/13 23:16:00;;;;;;;2.72;1.80;;;17.00;66.20;;;;;;10497626;28;20034;-57
2020/12/13 23:21:00;;;;;;;3.05;1.52;;;16.90;66.00;;;;;;10497345;28;20020;-57
2020/12/13 23:26:01;;;;;;;3.72;1.33;;;16.90;66.10;;;;;;10497042;28;20381;-57
2020/12/13 23:31:02;;;;;;;3.13;1.50;;;16.90;66.20;;;;;;10497262;28;20358;-57
2020/12/13 23:36:03;;;;;;;2.47;1.45;;;16.90;66.00;;;;;;10496630;28;20032;-57
2020/12/13 23:41:04;;;;;;;4.25;1.50;;;16.90;66.00;;;;;;10496967;28;20396;-58
2020/12/13 23:46:04;;;;;;;2.10;1.35;;;16.80;66.00;;;;;;10495812;28;20062;-56
2020/12/13 23:51:05;;;;;;;2.22;1.20;;;16.80;65.90;;;;;;10497117;28;20031;-57
2020/12/13 23:56:07;;;;;;;3.05;1.50;;;16.80;66.00;;;;;;10496461;28;20115;-57
